sensor_id;sensor_type;location;lat;lon;timestamp;pressure;altitude;pressure_sealevel;temperature;humidity
60015;BME280;45867;52.480;6.056;2023-02-18T00:00:17;102109.75;;;8.12;100.00
60015;BME280;45867;52.480;6.056;2023-02-18T00:02:44;102104.63;;;8.17;100.00
60015;BME280;45867;52.480;6.056;2023-02-18T00:05:10;102111.97;;;8.15;100.00
60015;BME280;45867;52.480;6.056;2023-02-18T00:07:38;102106.63;;;8.21;100.00
60015;BME280;45867;52.480;6.056;2023-02-18T00:10:07;102110.50;;;8.19;100.00
60015;BME280;45867;52.480;6.056;2023-02-18T00:12:33;102105.59;;;8.22;100.00
60015;BME280;45867;52.480;6.056;2023-02-18T00:14:58;102109.19;;;8.28;100.00
60015;BME280;45867;52.480;6.056;2023-02-18T00:17:24;102101.28;;;8.28;100.00
60015;BME280;45867;52.480;6.056;2023-02-18T00:19:49;102111.34;;;8.38;100.00
60015;BME280;45867;52.480;6.056;2023-02-18T00:22:15;102101.78;;;8.37;100.00
60015;BME280;45867;52.480;6.056;2023-02-18T00:24:47;102095.09;;;8.34;100.00
60015;BME280;45867;52.480;6.056;2023-02-18T00:27:14;102097.94;;;8.39;100.00
60015;BME280;45867;52.480;6.056;2023-02-18T00:29:39;102095.28;;;8.39;100.00
60015;BME280;45867;52.480;6.056;2023-02-18T00:32:05;102087.94;;;8.41;100.00
60015;BME280;45867;52.480;6.056;2023-02-18T00:34:30;102095.06;;;8.41;100.00
60015;BME280;45867;52.480;6.056;2023-02-18T00:36:56;102087.50;;;8.44;100.00
60015;BME280;45867;52.480;6.056;2023-02-18T00:39:21;102086.25;;;8.47;100.00
60015;BME280;45867;52.480;6.056;2023-02-18T00:41:47;102085.22;;;8.48;100.00
60015;BME280;45867;52.480;6.056;2023-02-18T00:44:12;102086.84;;;8.49;100.00
60015;BME280;45867;52.480;6.056;2023-02-18T00:46:38;102077.09;;;8.50;100.00
60015;BME280;45867;52.480;6.056;2023-02-18T00:49:04;102079.28;;;8.53;100.00
60015;BME280;45867;52.480;6.056;2023-02-18T00:51:29;102072.00;;;8.48;100.00
60015;BME280;45867;52.480;6.056;2023-02-18T00:53:55;102064.47;;;8.52;100.00
60015;BME280;45867;52.480;6.056;2023-02-18T00:56:20;102077.59;;;8.58;100.00
60015;BME280;45867;52.480;6.056;2023-02-18T00:58:45;102070.78;;;8.51;100.00
60015;BME280;45867;52.480;6.056;2023-02-18T01:01:11;102077.31;;;8.48;100.00
60015;BME280;45867;52.480;6.056;2023-02-18T01:03:41;102048.94;;;8.43;100.00
60015;BME280;45867;52.480;6.056;2023-02-18T01:06:08;102052.56;;;8.42;100.00
60015;BME280;45867;52.480;6.056;2023-02-18T01:08:34;102066.97;;;8.47;100.00
60015;BME280;45867;52.480;6.056;2023-02-18T01:11:00;102061.34;;;8.43;100.00
60015;BME280;45867;52.480;6.056;2023-02-18T01:13:27;102053.53;;;8.48;100.00
60015;BME280;45867;52.480;6.056;2023-02-18T01:15:52;102043.63;;;8.43;100.00
60015;BME280;45867;52.480;6.056;2023-02-18T01:18:18;102038.72;;;8.47;100.00
60015;BME280;45867;52.480;6.056;2023-02-18T01:20:44;102043.78;;;8.49;100.00
60015;BME280;45867;52.480;6.056;2023-02-18T01:23:11;102042.75;;;8.50;100.00
60015;BME280;45867;52.480;6.056;2023-02-18T01:25:45;102036.28;;;8.45;100.00
60015;BME280;45867;52.480;6.056;2023-02-18T01:28:12;102025.34;;;8.42;100.00
60015;BME280;45867;52.480;6.056;2023-02-18T01:30:38;102033.78;;;8.51;100.00
60015;BME280;45867;52.480;6.056;2023-02-18T01:33:04;102037.47;;;8.50;100.00
60015;BME280;45867;52.480;6.056;2023-02-18T01:35:30;102030.44;;;8.43;100.00
60015;BME280;45867;52.480;6.056;2023-02-18T01:37:56;102032.97;;;8.50;100.00
60015;BME280;45867;52.480;6.056;2023-02-18T01:40:24;102042.41;;;8.46;100.00
60015;BME280;45867;52.480;6.056;2023-02-18T01:42:50;102029.53;;;8.50;100.00
60015;BME280;45867;52.480;6.056;2023-02-18T01:48:07;102019.78;;;8.50;100.00
60015;BME280;45867;52.480;6.056;2023-02-18T01:50:37;102011.84;;;8.50;100.00
60015;BME280;45867;52.480;6.056;2023-02-18T01:53:04;102011.63;;;8.52;100.00
60015;BME280;45867;52.480;6.056;2023-02-18T01:55:30;102010.44;;;8.48;100.00
60015;BME280;45867;52.480;6.056;2023-02-18T01:57:56;102013.69;;;8.50;100.00
60015;BME280;45867;52.480;6.056;2023-02-18T02:00:22;101994.59;;;8.48;100.00
60015;BME280;45867;52.480;6.056;2023-02-18T02:02:50;102000.84;;;8.53;100.00
60015;BME280;45867;52.480;6.056;2023-02-18T02:05:17;101982.78;;;8.50;100.00
60015;BME280;45867;52.480;6.056;2023-02-18T02:07:44;101976.84;;;8.55;100.00
60015;BME280;45867;52.480;6.056;2023-02-18T02:10:11;101953.28;;;8.53;100.00
60015;BME280;45867;52.480;6.056;2023-02-18T02:13:01;101958.56;;;8.53;100.00
60015;BME280;45867;52.480;6.056;2023-02-18T02:15:35;101960.19;;;8.54;100.00
60015;BME280;45867;52.480;6.056;2023-02-18T02:34:46;101947.22;;;8.64;100.00
60015;BME280;45867;52.480;6.056;2023-02-18T02:51:09;101894.50;;;8.58;100.00
60015;BME280;45867;52.480;6.056;2023-02-18T02:53:39;101883.56;;;8.54;100.00
60015;BME280;45867;52.480;6.056;2023-02-18T02:56:08;101876.44;;;8.55;100.00
60015;BME280;45867;52.480;6.056;2023-02-18T02:58:34;101877.25;;;8.55;100.00
60015;BME280;45867;52.480;6.056;2023-02-18T03:03:42;101860.81;;;8.53;100.00
60015;BME280;45867;52.480;6.056;2023-02-18T03:06:47;101870.38;;;8.54;100.00
60015;BME280;45867;52.480;6.056;2023-02-18T03:09:30;101860.59;;;8.55;100.00
60015;BME280;45867;52.480;6.056;2023-02-18T03:12:07;101860.34;;;8.56;100.00
60015;BME280;45867;52.480;6.056;2023-02-18T03:20:06;101851.88;;;8.54;100.00
60015;BME280;45867;52.480;6.056;2023-02-18T03:22:41;101844.97;;;8.53;100.00
60015;BME280;45867;52.480;6.056;2023-02-18T03:25:09;101843.03;;;8.49;100.00
60015;BME280;45867;52.480;6.056;2023-02-18T03:27:50;101836.69;;;8.50;100.00
60015;BME280;45867;52.480;6.056;2023-02-18T03:30:22;101830.94;;;8.53;100.00
60015;BME280;45867;52.480;6.056;2023-02-18T03:32:48;101836.69;;;8.50;100.00
60015;BME280;45867;52.480;6.056;2023-02-18T03:35:17;101830.81;;;8.48;100.00
60015;BME280;45867;52.480;6.056;2023-02-18T03:37:50;101822.44;;;8.51;100.00
60015;BME280;45867;52.480;6.056;2023-02-18T03:40:17;101810.50;;;8.48;100.00
60015;BME280;45867;52.480;6.056;2023-02-18T03:42:43;101802.56;;;8.48;100.00
60015;BME280;45867;52.480;6.056;2023-02-18T03:45:08;101786.97;;;8.47;100.00
60015;BME280;45867;52.480;6.056;2023-02-18T03:47:34;101781.81;;;8.52;100.00
60015;BME280;45867;52.480;6.056;2023-02-18T03:50:00;101787.53;;;8.49;100.00
60015;BME280;45867;52.480;6.056;2023-02-18T03:52:26;101793.16;;;8.52;100.00
60015;BME280;45867;52.480;6.056;2023-02-18T03:54:51;101783.41;;;8.53;100.00
60015;BME280;45867;52.480;6.056;2023-02-18T03:57:17;101777.78;;;8.49;100.00
60015;BME280;45867;52.480;6.056;2023-02-18T03:59:42;101775.47;;;8.53;100.00
60015;BME280;45867;52.480;6.056;2023-02-18T04:02:08;101763.53;;;8.50;100.00
60015;BME280;45867;52.480;6.056;2023-02-18T04:04:33;101758.03;;;8.52;100.00
60015;BME280;45867;52.480;6.056;2023-02-18T04:06:59;101766.97;;;8.51;100.00
60015;BME280;45867;52.480;6.056;2023-02-18T04:09:24;101763.88;;;8.54;100.00
60015;BME280;45867;52.480;6.056;2023-02-18T04:11:50;101752.16;;;8.50;100.00
60015;BME280;45867;52.480;6.056;2023-02-18T04:14:15;101745.72;;;8.45;100.00
60015;BME280;45867;52.480;6.056;2023-02-18T04:16:41;101762.59;;;8.56;100.00
60015;BME280;45867;52.480;6.056;2023-02-18T04:19:06;101753.75;;;8.51;100.00
60015;BME280;45867;52.480;6.056;2023-02-18T04:21:32;101751.94;;;8.51;100.00
60015;BME280;45867;52.480;6.056;2023-02-18T04:23:58;101750.66;;;8.54;100.00
60015;BME280;45867;52.480;6.056;2023-02-18T04:26:25;101748.00;;;8.54;100.00
60015;BME280;45867;52.480;6.056;2023-02-18T04:28:50;101743.44;;;8.61;100.00
60015;BME280;45867;52.480;6.056;2023-02-18T04:31:16;101735.16;;;8.57;100.00
60015;BME280;45867;52.480;6.056;2023-02-18T04:33:41;101729.63;;;8.59;100.00
60015;BME280;45867;52.480;6.056;2023-02-18T04:36:07;101721.03;;;8.63;100.00
60015;BME280;45867;52.480;6.056;2023-02-18T04:38:32;101709.09;;;8.61;100.00
60015;BME280;45867;52.480;6.056;2023-02-18T04:40:57;101704.38;;;8.63;100.00
60015;BME280;45867;52.480;6.056;2023-02-18T04:43:23;101715.28;;;8.66;100.00
60015;BME280;45867;52.480;6.056;2023-02-18T04:45:48;101690.69;;;8.66;100.00
60015;BME280;45867;52.480;6.056;2023-02-18T04:48:14;101684.03;;;8.63;100.00
60015;BME280;45867;52.480;6.056;2023-02-18T04:50:39;101681.41;;;8.63;100.00
60015;BME280;45867;52.480;6.056;2023-02-18T04:53:05;101678.53;;;8.65;100.00
60015;BME280;45867;52.480;6.056;2023-02-18T04:55:30;101673.59;;;8.69;100.00
60015;BME280;45867;52.480;6.056;2023-02-18T04:57:55;101672.78;;;8.68;100.00
60015;BME280;45867;52.480;6.056;2023-02-18T05:00:21;101674.97;;;8.71;100.00
60015;BME280;45867;52.480;6.056;2023-02-18T05:02:46;101654.41;;;8.61;100.00
60015;BME280;45867;52.480;6.056;2023-02-18T05:05:12;101662.88;;;8.75;100.00
60015;BME280;45867;52.480;6.056;2023-02-18T05:07:38;101662.31;;;8.73;100.00
60015;BME280;45867;52.480;6.056;2023-02-18T05:10:04;101656.00;;;8.74;100.00
60015;BME280;45867;52.480;6.056;2023-02-18T05:12:30;101648.66;;;8.76;100.00
60015;BME280;45867;52.480;6.056;2023-02-18T05:14:56;101639.66;;;8.77;100.00
60015;BME280;45867;52.480;6.056;2023-02-18T05:17:21;101639.66;;;8.77;100.00
60015;BME280;45867;52.480;6.056;2023-02-18T05:19:46;101627.81;;;8.80;100.00
60015;BME280;45867;52.480;6.056;2023-02-18T05:22:12;101632.31;;;8.79;100.00
60015;BME280;45867;52.480;6.056;2023-02-18T05:24:46;101641.03;;;8.80;100.00
60015;BME280;45867;52.480;6.056;2023-02-18T05:27:12;101636.56;;;8.80;100.00
60015;BME280;45867;52.480;6.056;2023-02-18T05:29:37;101623.00;;;8.77;100.00
60015;BME280;45867;52.480;6.056;2023-02-18T05:32:02;101623.81;;;8.77;100.00
60015;BME280;45867;52.480;6.056;2023-02-18T05:34:28;101620.38;;;8.77;100.00
60015;BME280;45867;52.480;6.056;2023-02-18T05:36:53;101615.56;;;8.74;100.00
60015;BME280;45867;52.480;6.056;2023-02-18T05:39:19;101602.09;;;8.75;100.00
60015;BME280;45867;52.480;6.056;2023-02-18T05:41:44;101612.19;;;8.78;100.00
60015;BME280;45867;52.480;6.056;2023-02-18T05:44:09;101600.97;;;8.71;100.00
60015;BME280;45867;52.480;6.056;2023-02-18T05:46:53;101597.28;;;8.72;100.00
60015;BME280;45867;52.480;6.056;2023-02-18T05:49:19;101597.84;;;8.74;100.00
60015;BME280;45867;52.480;6.056;2023-02-18T05:51:45;101603.25;;;8.79;100.00
60015;BME280;45867;52.480;6.056;2023-02-18T05:54:11;101594.16;;;8.75;100.00
60015;BME280;45867;52.480;6.056;2023-02-18T05:56:36;101594.63;;;8.72;100.00
60015;BME280;45867;52.480;6.056;2023-02-18T05:59:04;101590.97;;;8.73;100.00
60015;BME280;45867;52.480;6.056;2023-02-18T06:01:30;101584.53;;;8.69;100.00
60015;BME280;45867;52.480;6.056;2023-02-18T06:03:55;101600.59;;;8.79;100.00
60015;BME280;45867;52.480;6.056;2023-02-18T06:06:20;101596.34;;;8.78;100.00
60015;BME280;45867;52.480;6.056;2023-02-18T06:08:46;101613.03;;;8.79;100.00
60015;BME280;45867;52.480;6.056;2023-02-18T06:11:11;101605.63;;;8.81;100.00
60015;BME280;45867;52.480;6.056;2023-02-18T06:13:37;101598.91;;;8.73;100.00
60015;BME280;45867;52.480;6.056;2023-02-18T06:16:02;101614.13;;;8.83;100.00
60015;BME280;45867;52.480;6.056;2023-02-18T06:18:28;101609.44;;;8.85;100.00
60015;BME280;45867;52.480;6.056;2023-02-18T06:20:53;101604.63;;;8.82;100.00
60015;BME280;45867;52.480;6.056;2023-02-18T06:23:25;101585.88;;;8.83;100.00
60015;BME280;45867;52.480;6.056;2023-02-18T06:25:50;101587.03;;;8.87;100.00
60015;BME280;45867;52.480;6.056;2023-02-18T06:28:16;101593.09;;;8.88;100.00
60015;BME280;45867;52.480;6.056;2023-02-18T06:30:41;101596.78;;;8.87;100.00
60015;BME280;45867;52.480;6.056;2023-02-18T06:33:08;101581.06;;;8.80;100.00
60015;BME280;45867;52.480;6.056;2023-02-18T06:35:33;101585.41;;;8.86;100.00
60015;BME280;45867;52.480;6.056;2023-02-18T06:37:59;101575.88;;;8.85;100.00
60015;BME280;45867;52.480;6.056;2023-02-18T06:40:25;101577.41;;;8.81;100.00
60015;BME280;45867;52.480;6.056;2023-02-18T06:42:50;101585.75;;;8.90;100.00
60015;BME280;45867;52.480;6.056;2023-02-18T06:45:16;101572.19;;;8.86;100.00
60015;BME280;45867;52.480;6.056;2023-02-18T06:47:41;101574.59;;;8.88;100.00
60015;BME280;45867;52.480;6.056;2023-02-18T06:50:07;101575.19;;;8.90;100.00
60015;BME280;45867;52.480;6.056;2023-02-18T06:52:33;101581.94;;;8.86;100.00
60015;BME280;45867;52.480;6.056;2023-02-18T06:54:59;101555.69;;;8.79;100.00
60015;BME280;45867;52.480;6.056;2023-02-18T06:57:24;101565.88;;;8.87;100.00
60015;BME280;45867;52.480;6.056;2023-02-18T06:59:50;101555.41;;;8.81;100.00
60015;BME280;45867;52.480;6.056;2023-02-18T07:02:15;101564.25;;;8.86;100.00
60015;BME280;45867;52.480;6.056;2023-02-18T07:04:43;101550.50;;;8.84;100.00
60015;BME280;45867;52.480;6.056;2023-02-18T07:07:10;101561.22;;;8.95;100.00
60015;BME280;45867;52.480;6.056;2023-02-18T07:09:36;101547.13;;;8.89;100.00
60015;BME280;45867;52.480;6.056;2023-02-18T07:12:01;101557.78;;;8.94;100.00
60015;BME280;45867;52.480;6.056;2023-02-18T07:14:27;101553.69;;;8.86;100.00
60015;BME280;45867;52.480;6.056;2023-02-18T07:16:52;101552.41;;;8.89;100.00
60015;BME280;45867;52.480;6.056;2023-02-18T07:19:18;101544.94;;;8.86;100.00
60015;BME280;45867;52.480;6.056;2023-02-18T07:21:43;101543.78;;;8.94;100.00
60015;BME280;45867;52.480;6.056;2023-02-18T07:24:08;101548.75;;;8.90;100.00
60015;BME280;45867;52.480;6.056;2023-02-18T07:26:34;101547.00;;;8.96;100.00
60015;BME280;45867;52.480;6.056;2023-02-18T07:28:59;101547.00;;;8.96;100.00
60015;BME280;45867;52.480;6.056;2023-02-18T07:31:25;101548.34;;;8.98;100.00
60015;BME280;45867;52.480;6.056;2023-02-18T07:33:50;101554.53;;;9.04;100.00
60015;BME280;45867;52.480;6.056;2023-02-18T07:36:16;101546.59;;;9.04;100.00
60015;BME280;45867;52.480;6.056;2023-02-18T07:38:41;101549.94;;;8.99;100.00
60015;BME280;45867;52.480;6.056;2023-02-18T07:41:14;101549.00;;;9.05;100.00
60015;BME280;45867;52.480;6.056;2023-02-18T07:43:41;101533.59;;;9.02;100.00
60015;BME280;45867;52.480;6.056;2023-02-18T07:46:06;101543.72;;;9.05;100.00
60015;BME280;45867;52.480;6.056;2023-02-18T07:48:37;101541.53;;;9.02;100.00
60015;BME280;45867;52.480;6.056;2023-02-18T07:51:09;101538.09;;;9.02;100.00
60015;BME280;45867;52.480;6.056;2023-02-18T07:53:39;101545.91;;;9.08;100.00
60015;BME280;45867;52.480;6.056;2023-02-18T07:56:14;101538.41;;;9.05;100.00
60015;BME280;45867;52.480;6.056;2023-02-18T08:02:03;101551.97;;;9.09;100.00
60015;BME280;45867;52.480;6.056;2023-02-18T08:05:29;101553.34;;;9.11;100.00
60015;BME280;45867;52.480;6.056;2023-02-18T08:08:22;101547.50;;;9.09;100.00
60015;BME280;45867;52.480;6.056;2023-02-18T08:14:18;101538.84;;;9.14;100.00
60015;BME280;45867;52.480;6.056;2023-02-18T08:16:46;101549.97;;;9.16;100.00
60015;BME280;45867;52.480;6.056;2023-02-18T08:19:41;101546.53;;;9.16;100.00
60015;BME280;45867;52.480;6.056;2023-02-18T08:22:23;101565.13;;;9.21;100.00
60015;BME280;45867;52.480;6.056;2023-02-18T08:25:09;101560.56;;;9.16;100.00
60015;BME280;45867;52.480;6.056;2023-02-18T08:27:37;101571.59;;;9.13;100.00
60015;BME280;45867;52.480;6.056;2023-02-18T08:30:03;101560.56;;;9.16;100.00
60015;BME280;45867;52.480;6.056;2023-02-18T08:32:29;101556.22;;;9.10;100.00
60015;BME280;45867;52.480;6.056;2023-02-18T08:34:57;101546.44;;;9.10;100.00
60015;BME280;45867;52.480;6.056;2023-02-18T08:37:32;101551.03;;;9.15;100.00
60015;BME280;45867;52.480;6.056;2023-02-18T08:39:57;101569.72;;;9.25;100.00
60015;BME280;45867;52.480;6.056;2023-02-18T08:42:23;101541.25;;;9.16;100.00
60015;BME280;45867;52.480;6.056;2023-02-18T08:44:50;101552.06;;;9.14;100.00
60015;BME280;45867;52.480;6.056;2023-02-18T08:47:16;101553.25;;;9.06;100.00
60015;BME280;45867;52.480;6.056;2023-02-18T08:49:44;101549.25;;;9.04;100.00
60015;BME280;45867;52.480;6.056;2023-02-18T08:52:10;101551.09;;;9.03;100.00
60015;BME280;45867;52.480;6.056;2023-02-18T08:54:46;101572.38;;;8.97;100.00
60015;BME280;45867;52.480;6.056;2023-02-18T08:57:16;101586.13;;;8.82;100.00
60015;BME280;45867;52.480;6.056;2023-02-18T08:59:42;101590.16;;;8.73;100.00
60015;BME280;45867;52.480;6.056;2023-02-18T09:02:13;101581.69;;;8.59;100.00
60015;BME280;45867;52.480;6.056;2023-02-18T09:04:39;101599.28;;;8.65;100.00
60015;BME280;45867;52.480;6.056;2023-02-18T09:07:05;101581.25;;;8.50;100.00
60015;BME280;45867;52.480;6.056;2023-02-18T09:09:30;101589.97;;;8.51;100.00
60015;BME280;45867;52.480;6.056;2023-02-18T09:11:58;101593.19;;;8.53;100.00
60015;BME280;45867;52.480;6.056;2023-02-18T09:14:24;101597.78;;;8.45;100.00
60015;BME280;45867;52.480;6.056;2023-02-18T09:16:49;101597.09;;;8.50;100.00
60015;BME280;45867;52.480;6.056;2023-02-18T09:19:16;101595.03;;;8.52;100.00
60015;BME280;45867;52.480;6.056;2023-02-18T09:21:42;101577.34;;;8.53;100.00
60015;BME280;45867;52.480;6.056;2023-02-18T09:24:07;101603.06;;;8.57;100.00
60015;BME280;45867;52.480;6.056;2023-02-18T09:26:34;101590.34;;;8.54;100.00
60015;BME280;45867;52.480;6.056;2023-02-18T09:29:00;101590.66;;;8.58;100.00
60015;BME280;45867;52.480;6.056;2023-02-18T09:31:29;101588.50;;;8.55;100.00
60015;BME280;45867;52.480;6.056;2023-02-18T09:34:00;101595.00;;;8.64;100.00
60015;BME280;45867;52.480;6.056;2023-02-18T09:36:26;101598.69;;;8.63;100.00
60015;BME280;45867;52.480;6.056;2023-02-18T09:38:52;101591.47;;;8.58;100.00
60015;BME280;45867;52.480;6.056;2023-02-18T09:41:58;101598.59;;;8.58;100.00
60015;BME280;45867;52.480;6.056;2023-02-18T09:44:38;101610.91;;;8.52;100.00
60015;BME280;45867;52.480;6.056;2023-02-18T09:47:27;101589.19;;;8.38;100.00
60015;BME280;45867;52.480;6.056;2023-02-18T09:50:05;101631.34;;;8.45;100.00
60015;BME280;45867;52.480;6.056;2023-02-18T09:52:33;101591.38;;;8.30;100.00
60015;BME280;45867;52.480;6.056;2023-02-18T09:55:33;101611.47;;;8.42;100.00
60015;BME280;45867;52.480;6.056;2023-02-18T09:58:10;101583.22;;;8.31;100.00
60015;BME280;45867;52.480;6.056;2023-02-18T10:00:46;101596.53;;;8.36;100.00
60015;BME280;45867;52.480;6.056;2023-02-18T10:06:33;101600.34;;;8.40;100.00
60015;BME280;45867;52.480;6.056;2023-02-18T10:09:32;101596.53;;;8.48;100.00
60015;BME280;45867;52.480;6.056;2023-02-18T10:12:19;101627.06;;;8.56;100.00
60015;BME280;45867;52.480;6.056;2023-02-18T10:14:54;101633.03;;;8.63;100.00
60015;BME280;45867;52.480;6.056;2023-02-18T10:17:22;101621.44;;;8.64;100.00
60015;BME280;45867;52.480;6.056;2023-02-18T10:19:50;101627.41;;;8.71;100.00
60015;BME280;45867;52.480;6.056;2023-02-18T10:22:17;101629.34;;;8.76;100.00
60015;BME280;45867;52.480;6.056;2023-02-18T10:25:16;101621.75;;;8.79;100.00
60015;BME280;45867;52.480;6.056;2023-02-18T10:27:53;101617.94;;;8.75;100.00
60015;BME280;45867;52.480;6.056;2023-02-18T10:30:28;101637.66;;;8.96;100.00
60015;BME280;45867;52.480;6.056;2023-02-18T10:36:23;101611.94;;;9.20;100.00
60015;BME280;45867;52.480;6.056;2023-02-18T10:39:22;101634.91;;;9.48;100.00
60015;BME280;45867;52.480;6.056;2023-02-18T10:42:15;101617.44;;;9.64;100.00
60015;BME280;45867;52.480;6.056;2023-02-18T10:45:15;101629.78;;;9.92;100.00
60015;BME280;45867;52.480;6.056;2023-02-18T10:50:29;101617.28;;;10.05;100.00
60015;BME280;45867;52.480;6.056;2023-02-18T10:53:01;101625.53;;;9.91;100.00
60015;BME280;45867;52.480;6.056;2023-02-18T10:55:35;101611.56;;;9.79;100.00
60015;BME280;45867;52.480;6.056;2023-02-18T10:58:01;101628.41;;;9.90;100.00
60015;BME280;45867;52.480;6.056;2023-02-18T11:00:34;101607.00;;;9.91;100.00
60015;BME280;45867;52.480;6.056;2023-02-18T11:03:15;101615.13;;;10.02;100.00
60015;BME280;45867;52.480;6.056;2023-02-18T11:05:42;101621.63;;;9.94;100.00
60015;BME280;45867;52.480;6.056;2023-02-18T11:08:10;101622.88;;;10.08;100.00
60015;BME280;45867;52.480;6.056;2023-02-18T11:10:41;101629.78;;;10.09;100.00
60015;BME280;45867;52.480;6.056;2023-02-18T11:13:09;101624.56;;;9.97;100.00
60015;BME280;45867;52.480;6.056;2023-02-18T11:15:36;101634.06;;;9.93;100.00
60015;BME280;45867;52.480;6.056;2023-02-18T11:18:38;101636.94;;;9.92;100.00
60015;BME280;45867;52.480;6.056;2023-02-18T11:21:18;101635.88;;;9.93;100.00
60015;BME280;45867;52.480;6.056;2023-02-18T11:23:47;101640.06;;;9.89;100.00
60015;BME280;45867;52.480;6.056;2023-02-18T11:26:15;101642.72;;;9.89;100.00
60015;BME280;45867;52.480;6.056;2023-02-18T11:28:49;101639.28;;;9.88;100.00
60015;BME280;45867;52.480;6.056;2023-02-18T11:31:19;101649.28;;;9.86;100.00
60015;BME280;45867;52.480;6.056;2023-02-18T11:33:55;101646.16;;;9.89;100.00
60015;BME280;45867;52.480;6.056;2023-02-18T11:38:56;101646.41;;;10.05;100.00
60015;BME280;45867;52.480;6.056;2023-02-18T11:41:42;101629.22;;;10.07;100.00
60015;BME280;45867;52.480;6.056;2023-02-18T11:44:31;101639.72;;;10.19;100.00
60015;BME280;45867;52.480;6.056;2023-02-18T11:47:00;101635.97;;;10.15;100.00
60015;BME280;45867;52.480;6.056;2023-02-18T11:49:26;101633.84;;;10.17;100.00
60015;BME280;45867;52.480;6.056;2023-02-18T11:51:54;101650.38;;;10.24;100.00
60015;BME280;45867;52.480;6.056;2023-02-18T11:54:25;101653.03;;;10.24;100.00
60015;BME280;45867;52.480;6.056;2023-02-18T11:57:00;101647.84;;;10.29;100.00
60015;BME280;45867;52.480;6.056;2023-02-18T11:59:29;101649.09;;;10.43;100.00
60015;BME280;45867;52.480;6.056;2023-02-18T12:04:49;101663.41;;;10.42;100.00
60015;BME280;45867;52.480;6.056;2023-02-18T12:07:25;101663.38;;;10.26;100.00
60015;BME280;45867;52.480;6.056;2023-02-18T12:10:00;101662.69;;;10.13;100.00
60015;BME280;45867;52.480;6.056;2023-02-18T12:12:31;101659.84;;;10.20;100.00
60015;BME280;45867;52.480;6.056;2023-02-18T12:15:02;101661.72;;;10.19;100.00
60015;BME280;45867;52.480;6.056;2023-02-18T12:17:59;101652.78;;;10.26;100.00
60015;BME280;45867;52.480;6.056;2023-02-18T12:32:42;101648.72;;;10.35;100.00
60015;BME280;45867;52.480;6.056;2023-02-18T12:44:00;101650.25;;;10.70;100.00
60015;BME280;45867;52.480;6.056;2023-02-18T12:49:35;101648.97;;;10.77;100.00
60015;BME280;45867;52.480;6.056;2023-02-18T12:52:18;101638.09;;;10.74;100.00
60015;BME280;45867;52.480;6.056;2023-02-18T12:55:04;101658.25;;;10.97;100.00
60015;BME280;45867;52.480;6.056;2023-02-18T13:06:02;101698.47;;;10.88;100.00
60015;BME280;45867;52.480;6.056;2023-02-18T13:11:29;101665.47;;;10.79;100.00
60015;BME280;45867;52.480;6.056;2023-02-18T13:16:32;101685.22;;;10.72;100.00
60015;BME280;45867;52.480;6.056;2023-02-18T13:19:02;101671.03;;;10.61;100.00
60015;BME280;45867;52.480;6.056;2023-02-18T13:21:31;101690.16;;;10.63;100.00
60015;BME280;45867;52.480;6.056;2023-02-18T13:24:00;101680.34;;;10.63;100.00
60015;BME280;45867;52.480;6.056;2023-02-18T13:26:28;101684.25;;;10.56;100.00
60015;BME280;45867;52.480;6.056;2023-02-18T13:29:31;101687.78;;;10.61;100.00
60015;BME280;45867;52.480;6.056;2023-02-18T13:32:29;101692.88;;;10.68;100.00
60015;BME280;45867;52.480;6.056;2023-02-18T13:35:06;101697.97;;;10.70;100.00
60015;BME280;45867;52.480;6.056;2023-02-18T13:40:31;101704.19;;;10.80;100.00
60015;BME280;45867;52.480;6.056;2023-02-18T13:43:17;101686.09;;;10.77;100.00
60015;BME280;45867;52.480;6.056;2023-02-18T13:48:27;101677.84;;;10.74;100.00
60015;BME280;45867;52.480;6.056;2023-02-18T13:51:01;101680.19;;;10.70;100.00
60015;BME280;45867;52.480;6.056;2023-02-18T13:53:28;101682.91;;;10.75;100.00
60015;BME280;45867;52.480;6.056;2023-02-18T13:55:59;101681.63;;;10.78;100.00
60015;BME280;45867;52.480;6.056;2023-02-18T13:58:39;101686.78;;;10.68;100.00
60015;BME280;45867;52.480;6.056;2023-02-18T14:03:50;101691.03;;;10.69;100.00
60015;BME280;45867;52.480;6.056;2023-02-18T14:06:32;101685.22;;;10.72;100.00
60015;BME280;45867;52.480;6.056;2023-02-18T14:12:16;101684.69;;;10.70;100.00
60015;BME280;45867;52.480;6.056;2023-02-18T14:14:47;101692.41;;;10.71;100.00
60015;BME280;45867;52.480;6.056;2023-02-18T14:19:42;101700.56;;;10.86;100.00
60015;BME280;45867;52.480;6.056;2023-02-18T14:27:34;101718.09;;;10.71;100.00
60015;BME280;45867;52.480;6.056;2023-02-18T14:30:25;101699.19;;;10.62;100.00
60015;BME280;45867;52.480;6.056;2023-02-18T14:32:56;101711.78;;;10.55;100.00
60015;BME280;45867;52.480;6.056;2023-02-18T14:46:54;101723.44;;;10.54;100.00
60015;BME280;45867;52.480;6.056;2023-02-18T14:51:53;101729.06;;;10.40;100.00
60015;BME280;45867;52.480;6.056;2023-02-18T14:54:22;101733.25;;;10.36;100.00
60015;BME280;45867;52.480;6.056;2023-02-18T14:57:00;101715.66;;;10.30;100.00
60015;BME280;45867;52.480;6.056;2023-02-18T14:59:34;101727.16;;;10.36;100.00
60015;BME280;45867;52.480;6.056;2023-02-18T15:02:00;101743.22;;;10.29;100.00
60015;BME280;45867;52.480;6.056;2023-02-18T15:04:26;101720.06;;;10.25;100.00
60015;BME280;45867;52.480;6.056;2023-02-18T15:07:03;101737.13;;;10.29;100.00
60015;BME280;45867;52.480;6.056;2023-02-18T15:09:29;101729.59;;;10.26;100.00
60015;BME280;45867;52.480;6.056;2023-02-18T15:11:59;101736.94;;;10.35;100.00
60015;BME280;45867;52.480;6.056;2023-02-18T15:14:35;101736.38;;;10.33;100.00
60015;BME280;45867;52.480;6.056;2023-02-18T15:17:03;101730.78;;;10.30;100.00